Traverse City, MI (49686)

9:59 PM EDT on August 31, 2016 (GMT -0400)
bunger | | Change Station

Elev 646 ft 44.77 °N, 85.58 °W | Updated 3 seconds ago

Mostly Cloudy
Mostly Cloudy
67.2 °F
Feels Like 67.2 °F
N
2.0
Wind Variable Wind from North
Gusts 7.0 mph

Today
High -- | Low -- °F
--% Chance of Precip.
Yesterday
High -- | Low -- °F
Precip. -- in
Pressure 30.08 in
Visibility 10.0 miles
Clouds Few 3300 ft
Mostly Cloudy 7000 ft
Dew Point 58 °F
Humidity 72%
Rainfall 0.00 in
Snow Depth Not available.
7:04 AM 8:20 PM
Waning Crescent, 0% visible
METAR KTVC 010153Z 35008KT 10SM FEW033 BKN070 21/13 A3008 RMK AO2 SLP185 LAST T02060128
Pressure 30.08 in
Visibility 10.0 miles
Clouds Few 3300 ft
Mostly Cloudy 7000 ft
Dew Point 58 °F
Humidity 72%
Rainfall 0.00 in
Snow Depth Not available.
7:04 AM 8:20 PM
Waning Crescent, 0% visible
METAR KTVC 010153Z 35008KT 10SM FEW033 BKN070 21/13 A3008 RMK AO2 SLP185 LAST T02060128

10-Day Weather Forecast

Almanac

Astronomy

Aug. 31, 2016 Rise Set
Actual Time
Civil Twilight
Nautical Twilight
Astronomical Twilight
Moon
Length of Visible Light
Length of Day
Tomorrow will be .
, % of the Moon is Illuminated

Today's Extremes

State Highs State Lows

Community

WunderPhotos

Upload Photos

1,936,266 photos uploaded!

WunderBlog® & News

Nearby

Air Quality

  Air Quality AQ Index Pollutant
Not available.

Snow Depth

Station Depth Elevation

Earthquake Activity

City Distance Mag. Time & Date
Minimum magnitude displayed is 2.5.

Coastal Water Temperatures

Place Temperature

Stations

Nearby Weather Stations

Station Location Temp. Windchill Dew Point Humidity Wind Precip. Elev Updated Type
                   

Watches & Warnings

There are currently no watches in effect.